Alden, NY (14004)

11:51 AM EDT on September 03, 2015 (GMT -0400)
West Alden | | Change Station
CLOSE
Current Station
Personal Weather Station
Location: Alden, NY
Elevation: 840 ft
Nearby Weather Stations

Elev 840 ft 42.89 °N, 78.53 °W | Updated 2 minutes ago

Partly Cloudy
Partly Cloudy
84.5 °F
Feels Like 84 °F
N
0.0
Wind Variable Wind from SSE
Gusts 0.0 mph

Today
High -- | Low -- °F
--% Chance of Precip.
Yesterday
High -- | Low -- °F
Precip. -- in
6:40 AM 7:45 PM
Waning Gibbous, 69% visible
Pressure 29.96 in
Visibility 6.0 miles
Clouds Few 1800 ft
Scattered Clouds 4200 ft
Scattered Clouds 18000 ft
Scattered Clouds 26000 ft
Heat Index 84 °F
Dew Point 59 °F
Humidity 42%
Rainfall 0.00 in
Snow Depth Not available.
UV 5 out of 12
Pollen 10.20 out of 12
Air Quality Not available.
Flu Activity Not available.
METAR KBUF 031454Z 20004KT 6SM HZ FEW018 SCT042 SCT180 SCT260 26/21 A2997 RMK AO2 SLP143 T02610211 50000
Pressure 29.96 in
Visibility 6.0 miles
Clouds Few 1800 ft
Scattered Clouds 4200 ft
Scattered Clouds 18000 ft
Scattered Clouds 26000 ft
Heat Index 84 °F
Dew Point 59 °F
Humidity 42%
Rainfall 0.00 in
Snow Depth Not available.
UV 5 out of 12
Pollen 10.20 out of 12
Air Quality Not available.
Flu Activity Not available.
METAR KBUF 031454Z 20004KT 6SM HZ FEW018 SCT042 SCT180 SCT260 26/21 A2997 RMK AO2 SLP143 T02610211 50000

10-Day Weather Forecast

×

Almanac

Astronomy

Sep. 03, 2015 Rise Set
Actual Time
Civil Twilight
Nautical Twilight
Astronomical Twilight
Moon
Length of Visible Light
Length of Day
Tomorrow will be .
, % of the Moon is Illuminated

Today's Extremes

State Highs State Lows

Community

WunderPhotos

Upload Photos

1,851,974 photos uploaded!

WunderBlogs® & News

Nearby

Air Quality

  Air Quality AQ Index Pollutant
Not available.

Snow Depth

Station Depth Elevation

Earthquake Activity

City Distance Mag. Time & Date
Minimum magnitude displayed is 2.5.

Coastal Water Temperatures

Place Temperature

Stations

Nearby Weather Stations

Station Location Temp. Windchill Dew Point Humidity Wind Precip. Elev Updated Type